Time;durP1;ratioP1;P1;durP2;ratioP2;P2;SDS_P1;SDS_P2;PMS_P1;PMS_P2;Temp;Humidity;BMP_temperature;BMP_pressure;BME280_temperature;BME280_humidity;BME280_pressure;Samples;Min_cycle;Max_cycle;Signal;HPM_P1;HPM_P2
2023/10/31 00:01:55;;;;;;;11.00;8.40;;;;;;;11.18;100.00;101190.33;105815;1254;72918;-75
2023/10/31 00:04:21;;;;;;;10.50;7.70;;;;;;;11.18;100.00;101189.09;105991;1256;63743;-74
2023/10/31 00:06:48;;;;;;;13.90;8.10;;;;;;;11.18;100.00;101185.78;105923;1256;72569;-75
2023/10/31 00:09:16;;;;;;;12.00;8.20;;;;;;;11.19;100.00;101187.46;105975;1256;61944;-74
2023/10/31 00:11:44;;;;;;;8.70;7.80;;;;;;;11.19;100.00;101185.86;105994;1256;59544;-77
2023/10/31 00:14:11;;;;;;;14.30;8.60;;;;;;;11.19;100.00;101185.02;105842;1254;73101;-75
2023/10/31 00:16:58;;;;;;;10.40;8.20;;;;;;;11.19;100.00;101183.79;105954;1256;63917;-75
2023/10/31 00:19:25;;;;;;;13.60;8.30;;;;;;;11.19;100.00;101187.80;105850;1253;71257;-74
2023/10/31 00:21:53;;;;;;;11.80;8.70;;;;;;;11.18;100.00;101188.59;105954;1256;61784;-73
2023/10/31 00:24:20;;;;;;;12.50;8.60;;;;;;;11.17;100.00;101184.08;105741;1251;60472;-76
2023/10/31 00:26:47;;;;;;;9.50;8.10;;;;;;;11.16;100.00;101184.66;105720;1253;73018;-74
2023/10/31 00:29:14;;;;;;;11.00;8.50;;;;;;;11.15;100.00;101183.52;105802;1256;63810;-75
2023/10/31 00:31:42;;;;;;;11.70;8.10;;;;;;;11.14;100.00;101189.32;105655;1254;70160;-77
2023/10/31 00:34:10;;;;;;;11.20;8.20;;;;;;;11.12;100.00;101189.75;105708;1253;62057;-75
2023/10/31 00:36:36;;;;;;;13.30;7.00;;;;;;;11.11;100.00;101193.86;105954;1254;60111;-72
2023/10/31 00:39:04;;;;;;;10.70;8.40;;;;;;;11.09;100.00;101192.54;107481;1254;72937;-72
2023/10/31 00:41:33;;;;;;;9.70;8.00;;;;;;;11.08;100.00;101189.79;107631;1253;63929;-71
2023/10/31 00:44:01;;;;;;;12.10;8.50;;;;;;;11.07;100.00;101188.66;107415;1252;70130;-70
2023/10/31 00:46:29;;;;;;;9.50;7.40;;;;;;;11.06;100.00;101188.15;106500;1256;60957;-76
2023/10/31 00:48:57;;;;;;;9.30;6.70;;;;;;;11.06;100.00;101185.55;105953;1252;60360;-75
2023/10/31 00:51:24;;;;;;;12.40;7.50;;;;;;;11.05;100.00;101178.22;105890;1252;73101;-75
2023/10/31 00:53:51;;;;;;;9.50;8.30;;;;;;;11.05;100.00;101175.63;105902;1256;63976;-73
2023/10/31 00:56:17;;;;;;;8.30;7.10;;;;;;;11.04;100.00;101166.39;105777;1254;71239;-76
2023/10/31 00:58:45;;;;;;;9.10;7.00;;;;;;;11.03;100.00;101167.48;105841;1256;62137;-76
2023/10/31 01:01:12;;;;;;;8.40;7.10;;;;;;;11.02;100.00;101171.22;105763;1253;60299;-75
2023/10/31 01:03:41;;;;;;;12.20;7.40;;;;;;;11.01;100.00;101167.76;105754;1254;72941;-75
2023/10/31 01:06:08;;;;;;;11.40;7.80;;;;;;;10.99;100.00;101167.33;105775;1256;63914;-74
2023/10/31 01:08:35;;;;;;;12.60;7.50;;;;;;;10.98;100.00;101166.19;105670;1254;72542;-76
2023/10/31 01:11:02;;;;;;;10.30;7.20;;;;;;;10.97;100.00;101163.08;105668;1254;62081;-72
2023/10/31 01:13:29;;;;;;;9.70;7.30;;;;;;;10.95;100.00;101160.71;105858;1252;59663;-74
2023/10/31 01:15:56;;;;;;;10.40;7.50;;;;;;;10.94;100.00;101161.19;105872;1252;71556;-75
2023/10/31 01:18:23;;;;;;;9.80;7.20;;;;;;;10.92;100.00;101162.13;105906;1254;62460;-76
2023/10/31 01:20:50;;;;;;;9.90;6.50;;;;;;;10.90;100.00;101158.73;105882;1254;72609;-75
2023/10/31 01:23:17;;;;;;;9.20;7.50;;;;;;;10.88;100.00;101157.27;105745;1252;60572;-75
2023/10/31 01:25:44;;;;;;;10.20;6.10;;;;;;;10.86;100.00;101160.70;105781;1253;60365;-76
2023/10/31 01:28:11;;;;;;;8.10;7.00;;;;;;;10.83;100.00;101160.66;105916;1254;72937;-76
2023/10/31 01:30:39;;;;;;;8.60;7.50;;;;;;;10.81;100.00;101157.83;105909;1256;63830;-74
2023/10/31 01:33:06;;;;;;;9.10;6.50;;;;;;;10.77;100.00;101156.41;105750;1256;72689;-75
2023/10/31 01:35:33;;;;;;;8.10;6.50;;;;;;;10.74;100.00;101164.46;105762;1256;62066;-73
2023/10/31 01:37:59;;;;;;;9.30;7.60;;;;;;;10.70;100.00;101166.60;105835;1256;59617;-74
2023/10/31 01:40:26;;;;;;;8.80;7.20;;;;;;;10.66;100.00;101171.02;105731;1254;72870;-74
2023/10/31 01:42:55;;;;;;;9.30;6.90;;;;;;;10.62;100.00;101169.61;105868;1256;63889;-76
2023/10/31 01:45:22;;;;;;;8.00;6.60;;;;;;;10.58;100.00;101166.84;105794;1254;71282;-77
2023/10/31 01:47:49;;;;;;;9.00;7.20;;;;;;;10.55;100.00;101164.36;105789;1255;60564;-73
2023/10/31 01:50:17;;;;;;;7.60;6.80;;;;;;;10.54;100.00;101165.88;105872;1253;59701;-73
2023/10/31 01:52:45;;;;;;;11.40;7.90;;;;;;;10.51;100.00;101160.03;105737;1254;73043;-75
2023/10/31 01:55:13;;;;;;;7.90;7.00;;;;;;;10.50;100.00;101163.61;105747;1256;62902;-74
2023/10/31 01:57:40;;;;;;;7.40;6.70;;;;;;;10.49;100.00;101162.45;105885;1254;72667;-74
2023/10/31 02:00:07;;;;;;;8.40;7.40;;;;;;;10.47;100.00;101164.45;105685;1254;61911;-76
2023/10/31 02:02:42;;;;;;;8.60;7.30;;;;;;;10.45;100.00;101164.37;105935;1256;60473;-75
2023/10/31 02:05:09;;;;;;;10.40;7.80;;;;;;;10.43;100.00;101165.39;105626;1256;72902;-74
2023/10/31 02:07:36;;;;;;;12.00;7.60;;;;;;;10.40;100.00;101164.27;105665;1257;63670;-74
2023/10/31 02:10:03;;;;;;;11.50;8.50;;;;;;;10.38;100.00;101162.48;105839;1256;72540;-75
2023/10/31 02:12:32;;;;;;;9.40;7.20;;;;;;;10.35;100.00;101159.83;105731;1256;61742;-75
2023/10/31 02:14:59;;;;;;;7.70;7.00;;;;;;;10.32;100.00;101159.45;105805;1254;60509;-76
2023/10/31 02:17:26;;;;;;;11.10;8.60;;;;;;;10.29;100.00;101155.23;105653;1256;73023;-75
2023/10/31 02:19:54;;;;;;;11.90;7.80;;;;;;;10.28;100.00;101154.73;105626;1256;63930;-76
2023/10/31 02:22:21;;;;;;;7.80;7.00;;;;;;;10.27;100.00;101152.69;105816;1256;72708;-75
2023/10/31 02:24:49;;;;;;;9.80;7.00;;;;;;;10.25;100.00;101149.29;105705;1251;60472;-74
2023/10/31 02:27:15;;;;;;;7.80;7.00;;;;;;;10.24;100.00;101148.13;105759;1254;60426;-76
2023/10/31 02:29:42;;;;;;;8.20;7.10;;;;;;;10.23;100.00;101146.61;105672;1256;73131;-76
2023/10/31 02:32:11;;;;;;;7.40;6.70;;;;;;;10.22;100.00;101149.92;105732;1256;63974;-74
2023/10/31 02:34:38;;;;;;;9.10;6.80;;;;;;;10.23;100.00;101142.23;105820;1254;72653;-77
2023/10/31 02:37:05;;;;;;;10.30;7.00;;;;;;;10.22;100.00;101135.11;105728;1256;60466;-76
2023/10/31 02:39:32;;;;;;;7.70;6.90;;;;;;;10.21;100.00;101134.62;105789;1256;59675;-78
2023/10/31 02:41:59;;;;;;;8.70;7.80;;;;;;;10.20;100.00;101134.52;105825;1254;71433;-75
2023/10/31 02:44:28;;;;;;;9.50;8.00;;;;;;;10.16;100.00;101129.96;105690;1254;62613;-77
2023/10/31 02:46:55;;;;;;;10.30;8.80;;;;;;;10.14;100.00;101132.52;105751;1255;70226;-75
2023/10/31 02:49:22;;;;;;;10.90;9.10;;;;;;;10.10;100.00;101133.05;105802;1253;61814;-74
2023/10/31 02:51:49;;;;;;;12.90;9.60;;;;;;;10.07;100.00;101131.28;105781;1257;59542;-73
2023/10/31 02:54:16;;;;;;;15.80;10.20;;;;;;;10.03;100.00;101130.82;105730;1254;72014;-79
2023/10/31 02:56:43;;;;;;;14.50;10.50;;;;;;;9.99;100.00;101128.73;105939;1254;62416;-77
2023/10/31 02:59:10;;;;;;;13.60;11.40;;;;;;;9.94;100.00;101125.46;105849;1254;72642;-75
2023/10/31 03:01:37;;;;;;;11.50;9.50;;;;;;;9.91;100.00;101125.63;105928;1256;61909;-76
2023/10/31 03:04:04;;;;;;;14.80;10.40;;;;;;;9.89;100.00;101121.52;105725;1254;60296;-75
2023/10/31 03:06:31;;;;;;;11.20;10.00;;;;;;;9.89;100.00;101123.30;105833;1254;73188;-75
2023/10/31 03:08:59;;;;;;;12.40;9.40;;;;;;;9.86;100.00;101122.55;105705;1256;62862;-75
2023/10/31 03:11:26;;;;;;;11.40;9.10;;;;;;;9.83;100.00;101125.64;105639;1253;72708;-76
2023/10/31 03:13:53;;;;;;;10.00;7.90;;;;;;;9.82;100.00;101133.23;105754;1256;62817;-75
2023/10/31 03:16:20;;;;;;;11.10;9.00;;;;;;;9.80;100.00;101136.48;105828;1252;60462;-74
2023/10/31 03:18:48;;;;;;;11.00;9.10;;;;;;;9.77;100.00;101136.77;105712;1256;73845;-75
2023/10/31 03:21:15;;;;;;;11.70;8.30;;;;;;;9.75;100.00;101137.05;105768;1256;63795;-74
2023/10/31 03:23:43;;;;;;;12.70;9.00;;;;;;;9.74;100.00;101138.16;105816;1256;71236;-74
2023/10/31 03:26:10;;;;;;;16.90;9.70;;;;;;;9.72;100.00;101135.42;106841;1254;61841;-73
2023/10/31 03:28:38;;;;;;;15.20;9.80;;;;;;;9.70;100.00;101134.30;107503;1256;60492;-74
2023/10/31 03:31:04;;;;;;;11.20;8.30;;;;;;;9.69;100.00;101135.60;108105;1251;72462;-69
2023/10/31 03:33:31;;;;;;;10.00;8.20;;;;;;;9.68;100.00;101139.83;106962;1256;63882;-76
2023/10/31 03:35:59;;;;;;;8.60;7.30;;;;;;;9.68;100.00;101141.25;105882;1254;72874;-73
2023/10/31 03:38:26;;;;;;;9.90;7.00;;;;;;;9.66;100.00;101135.36;105875;1257;61925;-76
2023/10/31 03:40:54;;;;;;;8.60;7.00;;;;;;;9.66;100.00;101136.27;105852;1256;60398;-77
2023/10/31 03:43:21;;;;;;;9.60;6.20;;;;;;;9.66;100.00;101136.11;105886;1254;73953;-75
2023/10/31 03:45:48;;;;;;;10.00;5.90;;;;;;;9.65;100.00;101139.27;105744;1257;62807;-72
2023/10/31 03:48:15;;;;;;;8.20;6.30;;;;;;;9.65;100.00;101144.33;105722;1253;72684;-75
2023/10/31 03:50:43;;;;;;;8.30;6.50;;;;;;;9.64;100.00;101140.02;105658;1256;61986;-73
2023/10/31 03:53:13;;;;;;;7.50;6.70;;;;;;;9.64;100.00;101141.26;107536;1255;60380;-72
2023/10/31 03:55:40;;;;;;;7.30;6.60;;;;;;;9.64;100.00;101133.23;105936;1252;72220;-75
2023/10/31 03:58:07;;;;;;;9.30;7.50;;;;;;;9.63;100.00;101132.54;105932;1256;63826;-75
2023/10/31 04:00:34;;;;;;;7.30;6.50;;;;;;;9.63;100.00;101132.40;106085;1253;72758;-75
2023/10/31 04:03:01;;;;;;;10.40;7.70;;;;;;;9.63;100.00;101130.85;105665;1256;62055;-75
2023/10/31 04:05:28;;;;;;;9.40;6.80;;;;;;;9.62;100.00;101129.47;105951;1256;60443;-73
2023/10/31 04:07:55;;;;;;;8.10;6.40;;;;;;;9.61;100.00;101128.46;105881;1256;73842;-75
2023/10/31 04:10:22;;;;;;;6.20;5.60;;;;;;;9.61;100.00;101131.30;105855;1256;63768;-75
2023/10/31 04:12:49;;;;;;;8.70;6.20;;;;;;;9.60;100.00;101129.41;105808;1254;72686;-75
2023/10/31 04:15:16;;;;;;;7.40;6.70;;;;;;;9.59;100.00;101132.95;105685;1256;62010;-74
2023/10/31 04:17:43;;;;;;;7.10;6.40;;;;;;;9.57;100.00;101130.73;105659;1254;60546;-76
2023/10/31 04:20:10;;;;;;;11.00;8.00;;;;;;;9.56;100.00;101130.64;105781;1256;73719;-75
2023/10/31 04:22:37;;;;;;;10.70;7.70;;;;;;;9.54;100.00;101128.98;105723;1256;63836;-76
2023/10/31 04:25:06;;;;;;;10.20;7.60;;;;;;;9.50;100.00;101131.24;105771;1254;72427;-75
2023/10/31 04:27:33;;;;;;;10.70;8.20;;;;;;;9.48;100.00;101129.27;105802;1256;61055;-73
2023/10/31 04:30:00;;;;;;;10.10;7.80;;;;;;;9.44;100.00;101132.58;105755;1254;61242;-75
2023/10/31 04:32:26;;;;;;;9.20;7.30;;;;;;;9.43;100.00;101134.06;105725;1255;73946;-77
2023/10/31 04:34:53;;;;;;;9.40;7.80;;;;;;;9.41;100.00;101134.13;105708;1256;63642;-73
2023/10/31 04:37:21;;;;;;;11.30;7.90;;;;;;;9.39;100.00;101137.90;105731;1256;72756;-74
2023/10/31 04:39:47;;;;;;;12.90;7.40;;;;;;;9.38;100.00;101138.30;105786;1256;61696;-75
2023/10/31 04:42:14;;;;;;;10.50;8.10;;;;;;;9.37;100.00;101141.47;105879;1252;60542;-77
2023/10/31 04:44:41;;;;;;;13.10;8.70;;;;;;;9.37;100.00;101142.35;105766;1254;72405;-76
2023/10/31 04:47:08;;;;;;;11.60;7.00;;;;;;;9.37;100.00;101140.95;105860;1255;63978;-74
2023/10/31 04:49:36;;;;;;;11.20;7.50;;;;;;;9.37;100.00;101146.52;105775;1256;72318;-74
2023/10/31 04:52:03;;;;;;;9.30;6.80;;;;;;;9.39;100.00;101155.15;105758;1256;61904;-75
2023/10/31 04:54:30;;;;;;;8.90;7.10;;;;;;;9.42;100.00;101160.27;105849;1253;60465;-74
2023/10/31 04:56:57;;;;;;;7.50;6.70;;;;;;;9.44;100.00;101165.56;105829;1254;73656;-75
2023/10/31 04:59:25;;;;;;;7.90;7.00;;;;;;;9.47;100.00;101167.19;105866;1254;64694;-78
2023/10/31 05:01:55;;;;;;;8.90;6.60;;;;;;;9.49;100.00;101170.04;105810;1254;71596;-77
2023/10/31 05:04:22;;;;;;;10.00;8.10;;;;;;;9.51;100.00;101176.92;105854;1254;60571;-78
2023/10/31 05:06:48;;;;;;;13.50;9.30;;;;;;;9.53;100.00;101182.25;105854;1256;60383;-77
2023/10/31 05:09:15;;;;;;;9.00;7.80;;;;;;;9.52;100.00;101178.63;105790;1254;73797;-75
2023/10/31 05:11:43;;;;;;;13.40;8.90;;;;;;;9.51;100.00;101183.92;106125;1254;62270;-74
2023/10/31 05:14:10;;;;;;;10.00;7.80;;;;;;;9.50;100.00;101180.81;105890;1254;72872;-74
2023/10/31 05:16:43;;;;;;;12.10;7.10;;;;;;;9.51;100.00;101184.25;106013;1256;61703;-76
2023/10/31 05:19:10;;;;;;;8.80;7.50;;;;;;;9.54;100.00;101185.35;105763;1256;60424;-76
2023/10/31 05:21:37;;;;;;;9.40;7.60;;;;;;;9.57;100.00;101186.42;105870;1256;73960;-75
2023/10/31 05:24:05;;;;;;;9.30;8.00;;;;;;;9.62;100.00;101186.55;105755;1256;64551;-75
2023/10/31 05:26:32;;;;;;;8.60;7.70;;;;;;;9.68;100.00;101186.80;105861;1256;72614;-75
2023/10/31 05:28:59;;;;;;;8.80;7.50;;;;;;;9.75;100.00;101187.67;105843;1256;62051;-76
2023/10/31 05:31:26;;;;;;;8.70;6.40;;;;;;;9.84;100.00;101190.06;105731;1254;60637;-76
2023/10/31 05:33:53;;;;;;;7.70;6.30;;;;;;;9.91;100.00;101190.24;105800;1254;73844;-75
2023/10/31 05:36:22;;;;;;;7.80;6.90;;;;;;;9.99;100.00;101192.52;105755;1254;63696;-75
2023/10/31 05:38:49;;;;;;;8.60;5.80;;;;;;;10.05;100.00;101194.84;105851;1254;72447;-75
2023/10/31 05:41:16;;;;;;;9.00;6.70;;;;;;;10.11;100.00;101197.14;105785;1256;61935;-73
2023/10/31 05:43:44;;;;;;;7.40;6.60;;;;;;;10.21;100.00;101202.95;105772;1254;60791;-75
2023/10/31 05:46:13;;;;;;;9.10;6.50;;;;;;;10.37;100.00;101203.27;105819;1254;73907;-75
2023/10/31 05:48:41;;;;;;;6.80;6.10;;;;;;;10.60;100.00;101201.90;105742;1256;63647;-75
2023/10/31 05:51:16;;;;;;;7.00;5.40;;;;;;;10.82;100.00;101205.66;105926;1256;72955;-73
2023/10/31 05:53:46;;;;;;;6.30;5.30;;;;;;;11.02;100.00;101207.08;105721;1252;62094;-78
2023/10/31 05:56:15;;;;;;;5.20;4.80;;;;;;;11.19;100.00;101203.20;105827;1256;60370;-77
2023/10/31 05:58:41;;;;;;;6.20;5.60;;;;;;;11.35;100.00;101206.90;105876;1254;72714;-77
2023/10/31 06:01:11;;;;;;;5.80;4.90;;;;;;;11.53;100.00;101204.37;105916;1256;62470;-75
2023/10/31 06:03:38;;;;;;;7.80;5.20;;;;;;;11.74;100.00;101203.59;105820;1254;72681;-75
2023/10/31 06:06:06;;;;;;;4.40;4.00;;;;;;;11.91;100.00;101208.43;105669;1254;60923;-74
2023/10/31 06:08:33;;;;;;;7.10;3.60;;;;;;;11.99;100.00;101209.02;105844;1254;60543;-77
2023/10/31 06:11:00;;;;;;;6.70;3.80;;;;;;;11.98;100.00;101208.23;106019;1253;73719;-74
2023/10/31 06:13:29;;;;;;;6.00;5.20;;;;;;;11.92;100.00;101207.15;106057;1254;64046;-74
2023/10/31 06:15:57;;;;;;;5.10;4.60;;;;;;;11.88;100.00;101210.19;107161;1254;70572;-74
2023/10/31 06:18:28;;;;;;;7.30;6.60;;;;;;;11.83;100.00;101214.64;107044;1256;61698;-72
2023/10/31 06:20:55;;;;;;;6.60;5.00;;;;;;;11.79;100.00;101221.01;106303;1251;60840;-74
2023/10/31 06:23:22;;;;;;;5.20;4.50;;;;;;;11.78;100.00;101219.12;105884;1254;72685;-76
2023/10/31 06:25:49;;;;;;;6.00;4.50;;;;;;;11.78;100.00;101222.09;105822;1256;63897;-74
2023/10/31 06:28:16;;;;;;;4.50;4.00;;;;;;;11.77;100.00;101221.99;105859;1254;72460;-77
2023/10/31 06:30:43;;;;;;;5.00;4.40;;;;;;;11.72;100.00;101221.75;105755;1256;61854;-76
2023/10/31 06:33:10;;;;;;;7.50;4.70;;;;;;;11.63;100.00;101222.73;105869;1252;60549;-74
2023/10/31 06:35:37;;;;;;;5.10;4.60;;;;;;;11.58;100.00;101223.73;105816;1252;73774;-76
2023/10/31 06:38:05;;;;;;;5.00;4.50;;;;;;;11.53;100.00;101222.23;105888;1256;63937;-77
2023/10/31 06:40:32;;;;;;;5.10;4.40;;;;;;;11.50;100.00;101226.23;105799;1254;72691;-76
2023/10/31 06:43:00;;;;;;;6.90;4.40;;;;;;;11.50;100.00;101224.51;105756;1254;62027;-77
2023/10/31 06:45:27;;;;;;;7.80;5.20;;;;;;;11.49;100.00;101221.73;105982;1254;60556;-76
2023/10/31 06:47:54;;;;;;;6.00;4.60;;;;;;;11.49;100.00;101222.10;105931;1252;73842;-76
2023/10/31 06:50:22;;;;;;;5.30;4.60;;;;;;;11.48;100.00;101220.77;105833;1256;62537;-76
2023/10/31 06:52:49;;;;;;;7.90;4.70;;;;;;;11.46;100.00;101217.18;105767;1254;72494;-77
2023/10/31 06:55:16;;;;;;;6.10;5.30;;;;;;;11.48;100.00;101214.63;105890;1256;61812;-77
2023/10/31 06:57:43;;;;;;;5.20;4.10;;;;;;;11.52;100.00;101218.27;105928;1256;60344;-75
2023/10/31 07:00:14;;;;;;;5.60;5.00;;;;;;;11.56;100.00;101216.79;105840;1256;73762;-77
2023/10/31 07:02:41;;;;;;;5.20;4.60;;;;;;;11.61;100.00;101216.55;105863;1254;62715;-77
2023/10/31 07:05:08;;;;;;;5.70;5.20;;;;;;;11.64;100.00;101218.66;105821;1254;72684;-75
2023/10/31 07:07:38;;;;;;;6.00;5.00;;;;;;;11.65;100.00;101219.66;106144;1254;60484;-74
2023/10/31 07:10:05;;;;;;;6.80;5.20;;;;;;;11.65;100.00;101223.52;105807;1252;60444;-75
2023/10/31 07:12:33;;;;;;;5.80;5.20;;;;;;;11.65;100.00;101229.14;105813;1254;73887;-74
2023/10/31 07:15:00;;;;;;;4.80;4.30;;;;;;;11.66;100.00;101227.48;105861;1256;63776;-76
2023/10/31 07:17:27;;;;;;;6.00;4.50;;;;;;;11.67;100.00;101225.84;105773;1257;71232;-77
2023/10/31 07:19:54;;;;;;;5.20;4.50;;;;;;;11.69;100.00;101224.20;105725;1259;60481;-75
2023/10/31 07:22:22;;;;;;;5.70;4.90;;;;;;;11.71;100.00;101228.98;105775;1256;60438;-76
2023/10/31 07:24:49;;;;;;;6.80;4.10;;;;;;;11.69;100.00;101226.79;105965;1254;73744;-75
2023/10/31 07:27:16;;;;;;;4.90;4.50;;;;;;;11.69;100.00;101222.58;105834;1256;63811;-75
2023/10/31 07:29:44;;;;;;;5.50;4.80;;;;;;;11.70;100.00;101221.86;105886;1257;72577;-76
2023/10/31 07:32:11;;;;;;;9.00;4.60;;;;;;;11.71;100.00;101221.27;105915;1253;60552;-76
2023/10/31 07:34:41;;;;;;;4.70;4.20;;;;;;;11.73;100.00;101222.05;105849;1257;60454;-76
2023/10/31 07:37:09;;;;;;;4.70;3.40;;;;;;;11.76;100.00;101222.39;105973;1253;72844;-74
2023/10/31 07:39:36;;;;;;;4.20;3.40;;;;;;;11.80;100.00;101223.37;105850;1256;64773;-74
2023/10/31 07:42:03;;;;;;;5.80;3.10;;;;;;;11.85;100.00;101220.15;105802;1254;71431;-74
2023/10/31 07:44:30;;;;;;;4.00;3.60;;;;;;;11.87;100.00;101222.29;105798;1257;62000;-76
2023/10/31 07:46:57;;;;;;;4.30;3.70;;;;;;;11.91;100.00;101224.88;105918;1254;60438;-76
2023/10/31 07:49:24;;;;;;;5.60;4.20;;;;;;;11.96;100.00;101229.02;105945;1256;74889;-76
2023/10/31 07:51:51;;;;;;;5.00;4.10;;;;;;;12.01;100.00;101227.13;105816;1257;63961;-74
2023/10/31 07:54:19;;;;;;;6.60;4.00;;;;;;;12.06;100.00;101228.48;105879;1254;72572;-76
2023/10/31 07:56:46;;;;;;;6.20;4.30;;;;;;;12.08;100.00;101228.67;105846;1252;63125;-74
2023/10/31 07:59:13;;;;;;;4.80;4.20;;;;;;;12.12;100.00;101227.91;105845;1254;60796;-76
2023/10/31 08:01:40;;;;;;;5.30;3.80;;;;;;;12.17;100.00;101227.83;105905;1254;73828;-76
2023/10/31 08:04:07;;;;;;;4.00;3.50;;;;;;;12.24;100.00;101229.02;105789;1254;62573;-76
2023/10/31 08:06:34;;;;;;;7.20;4.30;;;;;;;12.30;100.00;101233.21;105911;1256;71637;-76
2023/10/31 08:09:02;;;;;;;8.40;4.80;;;;;;;12.37;100.00;101230.34;105809;1256;61940;-75
2023/10/31 08:11:29;;;;;;;5.50;3.90;;;;;;;12.47;100.00;101234.36;105777;1253;61418;-76
2023/10/31 08:13:55;;;;;;;4.70;3.30;;;;;;;12.54;100.00;101235.14;105729;1254;73930;-76
2023/10/31 08:16:23;;;;;;;4.20;3.80;;;;;;;12.61;100.00;101231.03;105821;1256;62624;-75
2023/10/31 08:18:49;;;;;;;4.80;3.50;;;;;;;12.69;100.00;101227.29;105719;1254;71197;-74
2023/10/31 08:21:16;;;;;;;5.30;4.20;;;;;;;12.78;100.00;101231.83;105811;1256;60978;-77
2023/10/31 08:23:46;;;;;;;5.60;4.20;;;;;;;12.87;100.00;101236.40;105825;1254;60649;-75
2023/10/31 08:26:13;;;;;;;4.80;4.30;;;;;;;12.94;100.00;101236.48;105788;1255;73947;-76
2023/10/31 08:28:40;;;;;;;5.20;4.20;;;;;;;13.03;100.00;101230.17;105709;1257;64050;-75
2023/10/31 08:31:08;;;;;;;5.60;4.90;;;;;;;13.12;100.00;101231.40;105905;1254;72671;-76
2023/10/31 08:33:35;;;;;;;6.60;5.00;;;;;;;13.23;100.00;101229.83;105961;1254;61843;-77
2023/10/31 08:36:04;;;;;;;4.90;4.40;;;;;;;13.39;100.00;101228.52;105946;1257;60444;-77
2023/10/31 08:38:31;;;;;;;4.80;4.20;;;;;;;13.73;100.00;101224.98;105923;1255;72642;-76
2023/10/31 08:40:59;;;;;;;6.70;4.50;;;;;;;14.34;100.00;101231.06;105799;1258;62826;-75
2023/10/31 08:43:26;;;;;;;5.40;3.20;;;;;;;15.13;100.00;101232.29;105903;1254;72671;-76
2023/10/31 08:45:53;;;;;;;3.30;3.10;;;;;;;16.04;100.00;101234.80;105860;1256;60885;-76
2023/10/31 08:48:21;;;;;;;3.50;2.90;;;;;;;16.99;100.00;101240.41;105937;1254;60549;-75
2023/10/31 08:50:48;;;;;;;3.30;2.80;;;;;;;17.81;100.00;101237.14;105855;1257;74723;-76
2023/10/31 08:53:15;;;;;;;4.00;2.80;;;;;;;18.53;100.00;101234.27;106014;1256;63923;-77
2023/10/31 08:55:43;;;;;;;3.70;2.70;;;;;;;19.15;100.00;101235.63;105874;1256;72639;-76
2023/10/31 08:58:12;;;;;;;3.00;2.50;;;;;;;19.78;100.00;101229.92;105995;1256;60643;-76
2023/10/31 09:00:43;;;;;;;2.40;1.80;;;;;;;20.39;100.00;101226.57;105994;1257;60509;-77
2023/10/31 09:03:10;;;;;;;2.30;1.90;;;;;;;20.98;100.00;101224.64;107074;1251;73605;-74
2023/10/31 09:05:37;;;;;;;2.50;2.00;;;;;;;21.56;100.00;101220.93;108394;1255;64034;-74
2023/10/31 09:08:05;;;;;;;6.80;2.40;;;;;;;22.10;100.00;101218.11;109159;1253;71847;-73
2023/10/31 09:10:33;;;;;;;2.20;1.70;;;;;;;22.67;100.00;101214.52;109489;1253;59341;-73
2023/10/31 09:13:00;;;;;;;3.50;2.00;;;;;;;23.24;99.83;101214.38;106108;1256;60373;-75
2023/10/31 09:15:27;;;;;;;2.80;2.10;;;;;;;23.77;95.38;101207.94;105937;1256;73426;-75
2023/10/31 09:17:54;;;;;;;3.30;2.40;;;;;;;24.29;84.05;101207.85;105837;1256;64250;-75
2023/10/31 09:20:21;;;;;;;4.80;2.40;;;;;;;24.76;75.55;101203.85;105784;1264;72860;-73
2023/10/31 09:22:48;;;;;;;6.70;2.50;;;;;;;25.04;68.73;101204.65;105911;1256;60543;-76
2023/10/31 09:25:15;;;;;;;3.40;2.90;;;;;;;25.30;66.53;101199.88;105912;1254;60489;-76
2023/10/31 09:27:42;;;;;;;3.70;2.40;;;;;;;25.66;62.18;101198.19;105828;1253;72891;-75
2023/10/31 09:30:08;;;;;;;2.40;2.20;;;;;;;25.98;58.61;101191.80;105902;1256;63049;-74
2023/10/31 09:32:36;;;;;;;3.00;2.70;;;;;;;26.23;56.08;101187.09;105825;1257;73397;-74
2023/10/31 09:35:08;;;;;;;6.00;3.10;;;;;;;26.38;53.85;101185.85;105841;1257;60530;-76
2023/10/31 09:37:35;;;;;;;6.00;2.90;;;;;;;26.47;54.06;101182.85;105952;1256;60527;-75
2023/10/31 09:40:04;;;;;;;4.50;2.30;;;;;;;26.72;53.32;101179.09;105780;1257;72750;-76
2023/10/31 09:42:31;;;;;;;5.50;2.60;;;;;;;27.05;51.77;101181.95;105666;1254;65198;-75
2023/10/31 09:44:57;;;;;;;3.20;2.90;;;;;;;27.38;51.43;101180.27;105800;1254;73856;-76
2023/10/31 09:47:24;;;;;;;3.50;2.80;;;;;;;27.73;50.36;101175.81;105822;1254;60865;-76
2023/10/31 09:49:51;;;;;;;5.10;3.10;;;;;;;27.95;46.91;101175.44;105856;1256;61200;-77
2023/10/31 09:52:20;;;;;;;3.70;2.80;;;;;;;27.96;45.62;101177.43;106078;1255;73284;-77
2023/10/31 09:54:47;;;;;;;4.10;2.70;;;;;;;27.83;45.58;101175.80;105706;1254;61843;-78
2023/10/31 09:57:15;;;;;;;4.10;2.70;;;;;;;27.69;45.55;101171.79;105978;1256;72868;-77
2023/10/31 09:59:43;;;;;;;4.70;2.90;;;;;;;27.55;45.95;101169.78;105969;1265;60405;-75
2023/10/31 10:02:10;;;;;;;2.90;2.70;;;;;;;27.53;46.64;101171.99;105928;1254;60428;-75
2023/10/31 10:04:37;;;;;;;3.40;2.50;;;;;;;27.45;45.01;101167.80;105722;1256;73168;-75
2023/10/31 10:07:04;;;;;;;5.70;2.80;;;;;;;27.28;46.32;101168.96;105859;1257;64021;-76
2023/10/31 10:09:32;;;;;;;4.20;3.10;;;;;;;27.32;47.48;101170.59;105965;1257;73569;-73
2023/10/31 10:12:00;;;;;;;4.00;2.80;;;;;;;27.45;47.13;101161.95;105915;1256;60409;-75
2023/10/31 10:14:28;;;;;;;6.40;3.30;;;;;;;27.57;46.19;101159.84;105959;1257;60494;-76
2023/10/31 10:16:55;;;;;;;3.10;2.70;;;;;;;27.68;46.26;101156.86;105883;1257;73708;-76
2023/10/31 10:19:22;;;;;;;3.50;2.80;;;;;;;27.85;45.87;101152.16;105865;1257;64157;-76
2023/10/31 10:21:51;;;;;;;6.30;3.30;;;;;;;28.00;45.00;101146.08;105845;1255;73823;-76
2023/10/31 10:24:20;;;;;;;7.80;3.60;;;;;;;28.05;45.22;101145.58;105959;1257;60493;-77
2023/10/31 10:26:47;;;;;;;4.60;3.40;;;;;;;28.15;45.49;101142.91;105962;1257;60492;-77
2023/10/31 10:29:15;;;;;;;5.80;3.00;;;;;;;28.20;45.67;101144.36;105789;1254;73993;-78
2023/10/31 10:31:42;;;;;;;6.00;2.80;;;;;;;28.18;45.92;101142.66;105914;1254;61790;-78
2023/10/31 10:34:09;;;;;;;8.20;3.00;;;;;;;28.08;46.68;101136.69;105838;1256;72670;-76
2023/10/31 10:36:36;;;;;;;6.00;3.10;;;;;;;28.03;48.12;101135.15;106034;1256;60681;-76
2023/10/31 10:39:04;;;;;;;8.30;4.00;;;;;;;28.16;48.08;101135.09;105862;1254;61866;-76
2023/10/31 10:41:31;;;;;;;5.20;3.20;;;;;;;28.20;47.89;101136.95;105742;1251;74276;-78
2023/10/31 10:44:05;;;;;;;6.40;2.90;;;;;;;28.07;48.45;101132.40;105961;1254;63874;-77
2023/10/31 10:46:33;;;;;;;6.10;2.80;;;;;;;27.79;49.23;101130.82;105865;1265;72635;-75
2023/10/31 10:49:03;;;;;;;5.30;2.90;;;;;;;27.44;51.24;101124.94;105867;1256;61483;-75
2023/10/31 10:51:58;;;;;;;4.00;2.70;;;;;;;27.14;52.47;101126.73;105971;1252;60647;-76
2023/10/31 10:54:30;;;;;;;4.30;2.40;;;;;;;26.49;55.06;101122.10;105820;1257;73473;-77
2023/10/31 10:57:10;;;;;;;5.60;2.60;;;;;;;25.76;59.36;101118.20;105867;1257;64016;-79
2023/10/31 10:59:42;;;;;;;6.90;3.00;;;;;;;25.02;64.82;101116.63;105897;1257;72761;-75
2023/10/31 11:02:10;;;;;;;5.80;2.80;;;;;;;24.39;70.43;101122.23;105800;1257;60617;-75
2023/10/31 11:04:37;;;;;;;5.20;3.60;;;;;;;23.88;76.30;101119.81;105771;1254;60543;-77
2023/10/31 11:07:05;;;;;;;7.70;3.40;;;;;;;23.41;81.45;101114.80;105708;1252;72739;-78
2023/10/31 11:09:33;;;;;;;8.20;4.00;;;;;;;23.07;85.70;101111.11;106028;1257;64583;-77
2023/10/31 11:12:00;;;;;;;6.10;3.10;;;;;;;22.80;88.98;101110.52;105809;1256;71996;-75